Eufola, North Carolina
Current Conditions -  °F | °C
As of 2:15 PM on Saturday 20 Dec 2014 (Local Time) from KSVH Reporting Station
Overcast Overcast  
Wind Chill: 42°   Ceiling: 3100
Heat Index: 42°   Visibility: 10mi
Dew Point: 31°   Wind: 3mph
Humidity: 66%   Direction: 120°ESE
Pressure: 30.19"   Gusts: NA
Location:  35.8306°N, 80.9003°W
Report Text: KSVH 201915Z AUTO 12003KT 10SM SCT026 OVC031 06/00 A3019 RMK AO2 T00561004
Loading
Personal Weather Stations






























Interactive Weather Map New forecast layout! Learn more

10-Day Weather Forecast

Advertisements
Track Severe Weather on mobile